createdAt,value
2023-02-18T00:01:54.150Z,15.50
2023-02-18T00:04:21.610Z,15.60
2023-02-18T00:06:51.287Z,15.60
2023-02-18T00:09:18.520Z,15.60
2023-02-18T00:11:45.874Z,15.60
2023-02-18T00:14:14.910Z,15.60
2023-02-18T00:16:42.986Z,15.60
2023-02-18T00:19:19.056Z,15.60
2023-02-18T00:21:48.769Z,15.50
2023-02-18T00:24:16.574Z,15.60
2023-02-18T00:26:44.541Z,15.60
2023-02-18T00:29:14.238Z,15.60
2023-02-18T00:31:41.791Z,15.50
2023-02-18T00:34:11.827Z,15.50
2023-02-18T00:36:39.114Z,15.50
2023-02-18T00:39:10.402Z,15.50
2023-02-18T00:41:37.986Z,15.50
2023-02-18T00:44:05.979Z,15.60
2023-02-18T00:46:33.977Z,15.60
2023-02-18T00:49:04.703Z,15.60
2023-02-18T00:51:34.387Z,15.60
2023-02-18T00:54:04.204Z,15.50
2023-02-18T00:56:34.153Z,15.60
2023-02-18T00:59:01.394Z,15.50
2023-02-18T01:01:28.737Z,15.50
2023-02-18T01:03:56.079Z,15.50
2023-02-18T01:06:23.451Z,15.60
2023-02-18T01:08:53.112Z,15.60
2023-02-18T01:11:20.565Z,15.50
2023-02-18T01:13:51.904Z,15.50
2023-02-18T01:16:19.336Z,15.50
2023-02-18T01:18:46.644Z,15.60
2023-02-18T01:21:14.085Z,15.50
2023-02-18T01:23:42.039Z,15.60
2023-02-18T01:26:10.877Z,15.50
2023-02-18T01:28:40.107Z,15.50
2023-02-18T01:31:09.535Z,15.60
2023-02-18T01:33:42.104Z,15.50
2023-02-18T01:36:12.634Z,15.50
2023-02-18T01:38:40.010Z,15.60
2023-02-18T01:41:07.388Z,15.60
2023-02-18T01:43:34.906Z,15.50
2023-02-18T01:46:07.919Z,15.50
2023-02-18T01:48:43.999Z,15.60
2023-02-18T01:51:25.572Z,15.60
2023-02-18T01:54:00.830Z,15.60
2023-02-18T01:57:01.296Z,15.60
2023-02-18T01:59:36.788Z,15.60
2023-02-18T02:02:08.156Z,15.60
2023-02-18T02:04:35.468Z,15.60
2023-02-18T02:07:03.005Z,15.60
2023-02-18T02:09:37.422Z,15.60
2023-02-18T02:12:10.761Z,15.60
2023-02-18T02:15:02.296Z,15.60
2023-02-18T02:17:57.309Z,15.50
2023-02-18T02:20:54.850Z,15.60
2023-02-18T02:23:37.188Z,15.60
2023-02-18T02:26:12.430Z,15.60
2023-02-18T02:28:42.692Z,15.60
2023-02-18T02:31:31.331Z,15.50
2023-02-18T02:34:43.852Z,15.50
2023-02-18T02:37:11.043Z,15.50
2023-02-18T02:40:19.491Z,15.50
2023-02-18T02:43:16.657Z,15.50
2023-02-18T02:45:52.688Z,15.60
2023-02-18T02:48:43.058Z,15.50
2023-02-18T02:51:18.420Z,15.50
2023-02-18T02:53:45.827Z,15.50
2023-02-18T02:56:17.901Z,15.50
2023-02-18T02:59:01.926Z,15.50
2023-02-18T03:01:40.395Z,15.50
2023-02-18T03:04:07.633Z,15.50
2023-02-18T03:07:02.197Z,15.50
2023-02-18T03:09:44.186Z,15.50
2023-02-18T03:12:25.844Z,15.50
2023-02-18T03:15:11.720Z,15.50
2023-02-18T03:17:51.832Z,15.50
2023-02-18T03:20:22.140Z,15.50
2023-02-18T03:22:51.430Z,15.50
2023-02-18T03:25:20.736Z,15.50
2023-02-18T03:27:56.531Z,15.50
2023-02-18T03:30:33.234Z,15.50
2023-02-18T03:33:08.328Z,15.50
2023-02-18T03:35:40.465Z,15.50
2023-02-18T03:38:16.713Z,15.50
2023-02-18T03:40:44.077Z,15.40
2023-02-18T03:43:11.321Z,15.50
2023-02-18T03:45:41.017Z,15.40
2023-02-18T03:48:08.519Z,15.50
2023-02-18T03:50:35.790Z,15.50
2023-02-18T03:53:05.946Z,15.50
2023-02-18T03:55:33.225Z,15.50
2023-02-18T03:58:00.454Z,15.50
2023-02-18T04:00:30.005Z,15.50
2023-02-18T04:02:57.351Z,15.50
2023-02-18T04:05:27.005Z,15.40
2023-02-18T04:07:54.300Z,15.50
2023-02-18T04:10:23.774Z,15.40
2023-02-18T04:12:51.066Z,15.40
2023-02-18T04:15:18.406Z,15.40
2023-02-18T04:17:45.694Z,15.40
2023-02-18T04:20:16.739Z,15.50
2023-02-18T04:22:46.213Z,15.40
2023-02-18T04:25:13.514Z,15.40
2023-02-18T04:27:42.915Z,15.40
2023-02-18T04:30:10.735Z,15.40
2023-02-18T04:32:40.521Z,15.40
2023-02-18T04:35:08.129Z,15.40
2023-02-18T04:37:35.413Z,15.40
2023-02-18T04:40:02.844Z,15.40
2023-02-18T04:42:30.243Z,15.40
2023-02-18T04:44:57.537Z,15.40
2023-02-18T04:47:24.891Z,15.40
2023-02-18T04:49:54.374Z,15.40
2023-02-18T04:52:28.900Z,15.40
2023-02-18T04:54:56.247Z,15.40
2023-02-18T04:57:23.511Z,15.40
2023-02-18T04:59:50.827Z,15.40
2023-02-18T05:02:18.078Z,15.40
2023-02-18T05:04:45.349Z,15.40
2023-02-18T05:07:17.498Z,15.30
2023-02-18T05:09:47.354Z,15.40
2023-02-18T05:12:17.107Z,15.40
2023-02-18T05:14:44.410Z,15.30
2023-02-18T05:17:11.684Z,15.30
2023-02-18T05:19:41.151Z,15.30
2023-02-18T05:22:10.970Z,15.30
2023-02-18T05:24:42.854Z,15.30
2023-02-18T05:27:10.110Z,15.30
2023-02-18T05:29:37.404Z,15.30
2023-02-18T05:32:04.843Z,15.30
2023-02-18T05:34:32.113Z,15.30
2023-02-18T05:36:59.430Z,15.30
2023-02-18T05:39:26.770Z,15.40
2023-02-18T05:41:56.374Z,15.40
2023-02-18T05:44:33.567Z,15.40
2023-02-18T05:47:04.041Z,15.30
2023-02-18T05:49:32.298Z,15.40
2023-02-18T05:51:59.773Z,15.40
2023-02-18T05:54:29.370Z,15.30
2023-02-18T05:56:56.821Z,15.40
2023-02-18T05:59:27.570Z,15.40
2023-02-18T06:01:54.934Z,15.40
2023-02-18T06:04:22.201Z,15.40
2023-02-18T06:06:52.105Z,15.40
2023-02-18T06:09:21.652Z,15.40
2023-02-18T06:11:48.914Z,15.30
2023-02-18T06:14:16.179Z,15.40
2023-02-18T06:16:43.543Z,15.40
2023-02-18T06:19:10.830Z,15.40
2023-02-18T06:21:40.320Z,15.40
2023-02-18T06:24:09.800Z,15.40
2023-02-18T06:26:37.114Z,15.40
2023-02-18T06:29:06.788Z,15.40
2023-02-18T06:31:34.167Z,15.40
2023-02-18T06:34:01.527Z,15.30
2023-02-18T06:36:31.161Z,15.30
2023-02-18T06:39:00.805Z,15.40
2023-02-18T06:41:30.459Z,15.30
2023-02-18T06:44:00.412Z,15.30
2023-02-18T06:46:30.567Z,15.30
2023-02-18T06:49:00.354Z,15.30
2023-02-18T06:51:29.993Z,15.30
2023-02-18T06:53:57.257Z,15.30
2023-02-18T06:56:24.962Z,15.30
2023-02-18T06:58:52.280Z,15.30
2023-02-18T07:01:19.517Z,15.30
2023-02-18T07:03:49.749Z,15.30
2023-02-18T07:06:17.395Z,15.30
2023-02-18T07:08:44.745Z,15.30
2023-02-18T07:11:12.042Z,15.30
2023-02-18T07:13:39.317Z,15.30
2023-02-18T07:16:07.419Z,15.40
2023-02-18T07:18:37.172Z,15.40
2023-02-18T07:21:04.520Z,15.40
2023-02-18T07:23:33.961Z,15.40
2023-02-18T07:26:06.697Z,15.40
2023-02-18T07:28:36.943Z,15.40
2023-02-18T07:31:07.500Z,15.50
2023-02-18T07:33:34.892Z,15.50
2023-02-18T07:36:03.375Z,15.50
2023-02-18T07:38:31.486Z,15.50
2023-02-18T07:40:59.197Z,15.50
2023-02-18T07:43:31.066Z,15.50
2023-02-18T07:45:58.393Z,15.60
2023-02-18T07:48:25.717Z,15.60
2023-02-18T07:50:52.951Z,15.60
2023-02-18T07:53:20.256Z,15.60
2023-02-18T07:55:50.464Z,15.60
2023-02-18T07:58:24.454Z,15.60
2023-02-18T08:00:54.687Z,15.60
2023-02-18T08:03:26.416Z,15.60
2023-02-18T08:05:54.162Z,15.60
2023-02-18T08:08:30.400Z,15.60
2023-02-18T08:11:18.561Z,15.60
2023-02-18T08:13:48.270Z,15.60
2023-02-18T08:16:17.053Z,15.60
2023-02-18T08:18:44.677Z,15.60
2023-02-18T08:21:16.846Z,15.60
2023-02-18T08:23:44.493Z,15.60
2023-02-18T08:26:15.216Z,15.70
2023-02-18T08:28:43.641Z,15.60
2023-02-18T08:31:19.491Z,15.70
2023-02-18T08:33:47.242Z,15.70
2023-02-18T08:36:19.583Z,15.60
2023-02-18T08:38:49.374Z,15.70
2023-02-18T08:41:18.808Z,15.60
2023-02-18T08:43:46.876Z,15.70
2023-02-18T08:46:16.488Z,15.60
2023-02-18T08:48:52.607Z,15.60
2023-02-18T08:51:22.576Z,15.60
2023-02-18T08:53:50.560Z,15.60
2023-02-18T08:56:17.865Z,15.60
2023-02-18T08:58:45.317Z,15.60
2023-02-18T09:01:13.667Z,15.60
2023-02-18T09:03:41.169Z,15.60
2023-02-18T09:06:08.868Z,15.60
2023-02-18T09:08:36.274Z,15.60
2023-02-18T09:11:04.813Z,15.70
2023-02-18T09:13:33.763Z,15.70
2023-02-18T09:16:04.441Z,15.70
2023-02-18T09:18:35.996Z,15.70
2023-02-18T09:21:05.671Z,15.70
2023-02-18T09:23:36.432Z,15.70
2023-02-18T09:26:14.234Z,15.80
2023-02-18T09:28:43.649Z,15.80
2023-02-18T09:31:17.028Z,15.80
2023-02-18T09:33:47.293Z,15.90
2023-02-18T09:36:17.448Z,15.90
2023-02-18T09:38:48.516Z,15.90
2023-02-18T09:41:24.615Z,15.90
2023-02-18T09:43:57.269Z,16.00
2023-02-18T09:46:39.070Z,16.00
2023-02-18T09:49:15.231Z,16.10
2023-02-18T09:51:48.996Z,16.10
2023-02-18T09:54:31.378Z,16.20
2023-02-18T09:57:23.533Z,16.20
2023-02-18T09:59:58.503Z,16.20
2023-02-18T10:02:55.158Z,16.30
2023-02-18T10:05:40.103Z,16.30
2023-02-18T10:12:00.689Z,16.40
2023-02-18T10:14:31.689Z,16.50
2023-02-18T10:17:00.046Z,16.50
2023-02-18T10:19:55.961Z,16.60
2023-02-18T10:22:26.048Z,16.70
2023-02-18T10:25:02.385Z,16.80
2023-02-18T10:27:41.864Z,16.80
2023-02-18T10:30:34.518Z,16.90
2023-02-18T10:33:29.537Z,17.00
2023-02-18T10:40:19.289Z,17.00
2023-02-18T10:43:05.422Z,17.10
2023-02-18T10:46:00.547Z,17.10
2023-02-18T10:48:51.137Z,17.10
2023-02-18T10:51:29.646Z,17.10
2023-02-18T10:53:57.476Z,17.00
2023-02-18T11:03:51.627Z,17.00
2023-02-18T11:06:38.634Z,17.00
2023-02-18T11:09:07.194Z,17.00
2023-02-18T11:14:41.610Z,17.10
2023-02-18T11:17:31.637Z,17.10
2023-02-18T11:20:21.299Z,17.30
2023-02-18T11:22:49.818Z,17.40
2023-02-18T11:25:33.470Z,17.40
2023-02-18T11:28:36.362Z,17.50
2023-02-18T11:31:05.348Z,17.50
2023-02-18T11:34:11.637Z,17.60
2023-02-18T11:37:14.629Z,17.70
2023-02-18T11:39:49.550Z,17.70
2023-02-18T11:42:19.857Z,17.70
2023-02-18T11:45:12.922Z,17.70
2023-02-18T11:47:40.483Z,17.70
2023-02-18T11:50:10.697Z,17.70
2023-02-18T11:53:28.943Z,17.70
2023-02-18T11:55:59.935Z,17.70
2023-02-18T11:58:30.586Z,17.70
2023-02-18T12:01:03.395Z,17.80
2023-02-18T12:03:35.339Z,17.80
2023-02-18T12:06:34.940Z,17.80
2023-02-18T12:12:52.901Z,17.80
2023-02-18T12:16:10.940Z,17.80
2023-02-18T12:19:12.516Z,17.80
2023-02-18T12:22:00.898Z,17.90
2023-02-18T12:24:33.945Z,17.90
2023-02-18T12:27:29.590Z,18.00
2023-02-18T12:30:52.127Z,18.10
2023-02-18T12:34:05.047Z,18.10
2023-02-18T12:37:18.434Z,18.20
2023-02-18T12:40:05.554Z,18.30
2023-02-18T12:43:22.988Z,18.40
2023-02-18T12:49:51.631Z,18.50
2023-02-18T12:52:44.561Z,18.50
2023-02-18T12:59:16.765Z,18.60
2023-02-18T13:04:57.135Z,18.60
2023-02-18T13:07:42.518Z,18.70
2023-02-18T13:14:18.038Z,18.70
2023-02-18T13:20:05.375Z,18.70
2023-02-18T13:23:03.416Z,18.70
2023-02-18T13:25:37.452Z,18.70
2023-02-18T13:28:51.938Z,18.70
2023-02-18T13:31:50.102Z,18.70
2023-02-18T13:34:29.345Z,18.70
2023-02-18T13:37:19.993Z,18.70
2023-02-18T13:42:51.633Z,18.70
2023-02-18T13:45:56.213Z,18.70
2023-02-18T13:49:19.309Z,18.60
2023-02-18T13:51:51.867Z,18.70
2023-02-18T13:54:42.475Z,18.70
2023-02-18T13:57:27.027Z,18.70
2023-02-18T14:00:36.658Z,18.70
2023-02-18T14:03:41.288Z,18.70
2023-02-18T14:06:25.197Z,18.70
2023-02-18T14:09:13.041Z,18.70
2023-02-18T14:11:46.241Z,18.70
2023-02-18T14:14:25.499Z,18.70
2023-02-18T14:17:29.489Z,18.70
2023-02-18T14:21:06.710Z,18.60
2023-02-18T14:23:36.616Z,18.70
2023-02-18T14:27:07.834Z,18.70
2023-02-18T14:29:35.181Z,18.70
2023-02-18T14:35:30.954Z,18.70
2023-02-18T14:38:21.457Z,18.70
2023-02-18T14:41:22.355Z,18.70
2023-02-18T14:44:04.657Z,18.70
2023-02-18T14:46:54.843Z,18.70
2023-02-18T14:49:52.594Z,18.60
2023-02-18T14:52:57.740Z,18.60
2023-02-18T14:59:48.559Z,18.50
2023-02-18T15:02:43.876Z,18.50
2023-02-18T15:08:50.642Z,18.40
2023-02-18T15:12:07.441Z,18.40
2023-02-18T15:14:54.608Z,18.30
2023-02-18T15:17:47.284Z,18.30
2023-02-18T15:20:54.326Z,18.30
2023-02-18T15:23:16.012Z,18.30
2023-02-18T15:25:50.964Z,18.30
2023-02-18T15:28:33.300Z,18.30
2023-02-18T15:31:03.321Z,18.20
2023-02-18T15:33:40.587Z,18.20
2023-02-18T15:36:14.734Z,18.20
2023-02-18T15:44:50.360Z,18.10
2023-02-18T15:47:33.068Z,18.10
2023-02-18T15:50:04.786Z,18.10
2023-02-18T15:52:35.937Z,18.10
2023-02-18T15:55:19.665Z,18.10
2023-02-18T15:57:47.253Z,18.00
2023-02-18T16:00:22.454Z,18.00
2023-02-18T16:02:56.682Z,18.00
2023-02-18T16:05:28.720Z,17.90
2023-02-18T16:08:05.416Z,17.90
2023-02-18T16:10:36.926Z,17.90
2023-02-18T16:13:04.809Z,17.90
2023-02-18T16:15:38.285Z,17.90
2023-02-18T16:18:20.594Z,17.90
2023-02-18T16:20:55.989Z,17.90
2023-02-18T16:23:30.358Z,17.80
2023-02-18T16:26:18.924Z,17.80
2023-02-18T16:28:46.628Z,17.80
2023-02-18T16:31:16.600Z,17.80
2023-02-18T16:33:55.991Z,17.70
2023-02-18T16:36:24.401Z,17.70
2023-02-18T16:38:51.695Z,17.70
2023-02-18T16:41:19.201Z,17.70
2023-02-18T16:43:47.404Z,17.60
2023-02-18T16:46:18.522Z,17.60
2023-02-18T16:48:56.870Z,17.60
2023-02-18T16:51:25.933Z,17.60
2023-02-18T16:53:53.229Z,17.60
2023-02-18T16:56:24.796Z,17.60
2023-02-18T16:58:52.065Z,17.50
2023-02-18T17:01:23.274Z,17.60
2023-02-18T17:03:53.558Z,17.60
2023-02-18T17:06:21.626Z,17.60
2023-02-18T17:08:52.721Z,17.50
2023-02-18T17:11:31.406Z,17.50
2023-02-18T17:14:04.969Z,17.50
2023-02-18T17:16:32.501Z,17.50
2023-02-18T17:19:01.918Z,17.50
2023-02-18T17:21:29.211Z,17.40
2023-02-18T17:23:58.940Z,17.50
2023-02-18T17:26:28.965Z,17.40
2023-02-18T17:29:00.699Z,17.40
2023-02-18T17:31:31.138Z,17.40
2023-02-18T17:34:08.673Z,17.40
2023-02-18T17:36:35.904Z,17.50
2023-02-18T17:39:10.710Z,17.40
2023-02-18T17:41:38.723Z,17.40
2023-02-18T17:44:17.953Z,17.40
2023-02-18T17:46:45.366Z,17.40
2023-02-18T17:49:12.881Z,17.40
2023-02-18T17:51:49.532Z,17.40
2023-02-18T17:54:19.571Z,17.40
2023-02-18T17:57:33.828Z,17.40
2023-02-18T18:00:23.704Z,17.30
2023-02-18T18:02:57.337Z,17.30
2023-02-18T18:05:33.237Z,17.30
2023-02-18T18:08:01.981Z,17.30
2023-02-18T18:10:39.594Z,17.30
2023-02-18T18:13:37.694Z,17.30
2023-02-18T18:16:05.297Z,17.30
2023-02-18T18:18:32.607Z,17.30
2023-02-18T18:21:04.484Z,17.30
2023-02-18T18:23:33.948Z,17.30
2023-02-18T18:26:01.351Z,17.30
2023-02-18T18:28:33.400Z,17.30
2023-02-18T18:31:02.203Z,17.30
2023-02-18T18:33:33.005Z,17.30
2023-02-18T18:36:01.257Z,17.30
2023-02-18T18:38:33.262Z,17.30
2023-02-18T18:41:03.026Z,17.30
2023-02-18T18:43:33.180Z,17.30
2023-02-18T18:46:00.829Z,17.30
2023-02-18T18:48:30.548Z,17.30
2023-02-18T18:51:44.502Z,17.30
2023-02-18T18:54:12.165Z,17.30
2023-02-18T18:56:39.469Z,17.30
2023-02-18T18:59:08.584Z,17.20
2023-02-18T19:04:21.616Z,17.20
2023-02-18T19:07:10.869Z,17.20
2023-02-18T19:14:04.875Z,17.20
2023-02-18T19:17:47.049Z,17.20
2023-02-18T19:20:29.769Z,17.20
2023-02-18T19:24:01.643Z,17.20
2023-02-18T19:26:32.546Z,17.10
2023-02-18T19:29:12.186Z,17.10
2023-02-18T19:31:39.554Z,17.10
2023-02-18T19:34:17.449Z,17.10
2023-02-18T19:36:48.093Z,17.10
2023-02-18T19:39:15.820Z,17.10
2023-02-18T19:41:43.130Z,17.10
2023-02-18T19:44:16.689Z,17.10
2023-02-18T19:46:43.954Z,17.10
2023-02-18T19:49:11.232Z,17.10
2023-02-18T19:51:43.307Z,17.10
2023-02-18T19:54:12.953Z,17.00
2023-02-18T20:00:22.686Z,17.00
2023-02-18T20:02:50.614Z,17.00
2023-02-18T20:05:19.070Z,17.00
2023-02-18T20:07:46.850Z,17.00
2023-02-18T20:10:20.177Z,17.00
2023-02-18T20:12:55.476Z,17.00
2023-02-18T20:15:22.994Z,17.00
2023-02-18T20:17:53.110Z,17.00
2023-02-18T20:20:20.446Z,17.00
2023-02-18T20:25:33.549Z,17.00
2023-02-18T20:28:01.792Z,17.00
2023-02-18T20:30:29.337Z,17.00
2023-02-18T20:32:56.699Z,17.00
2023-02-18T20:35:24.610Z,17.00
2023-02-18T20:41:49.616Z,16.90
2023-02-18T20:44:18.225Z,16.90
2023-02-18T20:54:19.366Z,16.80
2023-02-18T20:56:53.072Z,16.90
2023-02-18T20:59:26.177Z,16.90
2023-02-18T21:01:55.573Z,16.80
2023-02-18T21:04:22.828Z,16.80
2023-02-18T21:07:27.377Z,16.80
2023-02-18T21:09:54.611Z,16.80
2023-02-18T21:12:27.174Z,16.80
2023-02-18T21:14:54.419Z,16.80
2023-02-18T21:17:27.923Z,16.80
2023-02-18T21:19:55.173Z,16.80
2023-02-18T21:22:22.453Z,16.70
2023-02-18T21:25:00.428Z,16.80
2023-02-18T21:27:27.692Z,16.80
2023-02-18T21:30:25.933Z,16.80
2023-02-18T21:35:40.221Z,16.80
2023-02-18T21:38:07.911Z,16.80
2023-02-18T21:40:49.753Z,16.70
2023-02-18T21:43:29.020Z,16.80
2023-02-18T21:46:25.587Z,16.70
2023-02-18T21:49:41.734Z,16.70
2023-02-18T21:52:11.898Z,16.70
2023-02-18T21:54:46.329Z,16.80
2023-02-18T21:57:17.150Z,16.80
2023-02-18T21:59:45.401Z,16.70
2023-02-18T22:02:20.161Z,16.70
2023-02-18T22:04:50.188Z,16.70
2023-02-18T22:07:18.593Z,16.70
2023-02-18T22:09:48.452Z,16.70
2023-02-18T22:12:16.965Z,16.70
2023-02-18T22:14:46.918Z,16.70
2023-02-18T22:17:19.404Z,16.70
2023-02-18T22:19:51.637Z,16.70
2023-02-18T22:22:18.958Z,16.70
2023-02-18T22:24:48.470Z,16.70
2023-02-18T22:27:15.738Z,16.70
2023-02-18T22:29:43.010Z,16.70
2023-02-18T22:32:10.331Z,16.60
2023-02-18T22:34:37.613Z,16.60
2023-02-18T22:37:09.824Z,16.60
2023-02-18T22:39:37.181Z,16.60
2023-02-18T22:42:05.233Z,16.60
2023-02-18T22:44:35.112Z,16.60
2023-02-18T22:47:04.740Z,16.60
2023-02-18T22:49:31.984Z,16.50
2023-02-18T22:52:01.716Z,16.60
2023-02-18T22:54:31.218Z,16.50
2023-02-18T22:56:58.447Z,16.50
2023-02-18T22:59:25.839Z,16.50
2023-02-18T23:01:53.518Z,16.50
2023-02-18T23:04:21.455Z,16.50
2023-02-18T23:06:49.994Z,16.50
2023-02-18T23:09:21.400Z,16.50
2023-02-18T23:11:54.100Z,16.50
2023-02-18T23:14:21.884Z,16.50
2023-02-18T23:17:07.817Z,16.40
2023-02-18T23:19:36.527Z,16.40
2023-02-18T23:22:04.973Z,16.40
2023-02-18T23:24:36.812Z,16.40
2023-02-18T23:27:06.291Z,16.40
2023-02-18T23:29:36.104Z,16.40
2023-02-18T23:32:06.268Z,16.40
2023-02-18T23:34:34.024Z,16.40
2023-02-18T23:37:01.375Z,16.40
2023-02-18T23:39:29.632Z,16.40
2023-02-18T23:41:59.641Z,16.40
2023-02-18T23:44:29.223Z,16.40
2023-02-18T23:46:56.503Z,16.40
2023-02-18T23:49:25.879Z,16.40
2023-02-18T23:51:57.016Z,16.40
2023-02-18T23:54:24.585Z,16.40
2023-02-18T23:56:54.040Z,16.40
2023-02-18T23:59:21.450Z,16.40
